sensor_id;sensor_type;location;lat;lon;timestamp;pressure;altitude;pressure_sealevel;temperature;humidity
10075;BME280;5076;42.680;23.288;2023-02-15T00:01:29;96127.38;;;1.49;100.00
10075;BME280;5076;42.680;23.288;2023-02-15T00:03:56;96121.09;;;1.35;100.00
10075;BME280;5076;42.680;23.288;2023-02-15T00:06:23;96132.16;;;1.37;100.00
10075;BME280;5076;42.680;23.288;2023-02-15T00:08:50;96133.28;;;1.34;100.00
10075;BME280;5076;42.680;23.288;2023-02-15T00:11:18;96126.97;;;1.29;100.00
10075;BME280;5076;42.680;23.288;2023-02-15T00:14:05;96136.72;;;1.35;100.00
10075;BME280;5076;42.680;23.288;2023-02-15T00:16:33;96140.13;;;1.35;100.00
10075;BME280;5076;42.680;23.288;2023-02-15T00:19:00;96137.06;;;1.24;100.00
10075;BME280;5076;42.680;23.288;2023-02-15T00:21:27;96146.31;;;1.26;100.00
10075;BME280;5076;42.680;23.288;2023-02-15T00:23:55;96128.63;;;1.22;100.00
10075;BME280;5076;42.680;23.288;2023-02-15T00:26:23;96145.50;;;1.26;100.00
10075;BME280;5076;42.680;23.288;2023-02-15T00:28:51;96152.03;;;1.30;100.00
10075;BME280;5076;42.680;23.288;2023-02-15T00:31:18;96147.13;;;1.27;100.00
10075;BME280;5076;42.680;23.288;2023-02-15T00:33:45;96151.41;;;1.20;100.00
10075;BME280;5076;42.680;23.288;2023-02-15T00:36:12;96144.41;;;1.20;100.00
10075;BME280;5076;42.680;23.288;2023-02-15T00:38:39;96143.44;;;1.13;100.00
10075;BME280;5076;42.680;23.288;2023-02-15T00:41:07;96155.78;;;1.19;100.00
10075;BME280;5076;42.680;23.288;2023-02-15T00:43:36;96159.88;;;1.22;100.00
10075;BME280;5076;42.680;23.288;2023-02-15T00:46:04;96142.50;;;1.06;100.00
10075;BME280;5076;42.680;23.288;2023-02-15T00:48:32;96156.44;;;1.13;100.00
10075;BME280;5076;42.680;23.288;2023-02-15T00:50:59;96149.63;;;1.12;100.00
10075;BME280;5076;42.680;23.288;2023-02-15T00:53:27;96148.97;;;1.18;100.00
10075;BME280;5076;42.680;23.288;2023-02-15T00:55:54;96137.41;;;1.13;100.00
10075;BME280;5076;42.680;23.288;2023-02-15T00:58:22;96149.28;;;1.15;100.00
10075;BME280;5076;42.680;23.288;2023-02-15T01:00:50;96150.44;;;1.13;100.00
10075;BME280;5076;42.680;23.288;2023-02-15T01:03:18;96152.84;;;1.22;100.00
10075;BME280;5076;42.680;23.288;2023-02-15T01:05:46;96135.94;;;1.10;100.00
10075;BME280;5076;42.680;23.288;2023-02-15T01:08:14;96130.44;;;1.05;100.00
10075;BME280;5076;42.680;23.288;2023-02-15T01:10:41;96148.28;;;1.24;100.00
10075;BME280;5076;42.680;23.288;2023-02-15T01:13:09;96135.09;;;1.26;100.00
10075;BME280;5076;42.680;23.288;2023-02-15T01:15:36;96141.78;;;1.28;100.00
10075;BME280;5076;42.680;23.288;2023-02-15T01:18:04;96135.91;;;1.34;100.00
10075;BME280;5076;42.680;23.288;2023-02-15T01:20:38;96129.72;;;1.27;100.00
10075;BME280;5076;42.680;23.288;2023-02-15T01:23:07;96127.28;;;1.26;100.00
10075;BME280;5076;42.680;23.288;2023-02-15T01:25:35;96135.59;;;1.29;100.00
10075;BME280;5076;42.680;23.288;2023-02-15T01:28:05;96136.88;;;1.33;100.00
10075;BME280;5076;42.680;23.288;2023-02-15T01:30:32;96134.13;;;1.35;100.00
10075;BME280;5076;42.680;23.288;2023-02-15T01:33:03;96137.69;;;1.34;100.00
10075;BME280;5076;42.680;23.288;2023-02-15T01:35:31;96131.34;;;1.28;100.00
10075;BME280;5076;42.680;23.288;2023-02-15T01:37:58;96140.28;;;1.34;100.00
10075;BME280;5076;42.680;23.288;2023-02-15T01:40:25;96133.97;;;1.28;100.00
10075;BME280;5076;42.680;23.288;2023-02-15T01:42:53;96130.38;;;1.29;100.00
10075;BME280;5076;42.680;23.288;2023-02-15T01:45:23;96127.28;;;1.26;100.00
10075;BME280;5076;42.680;23.288;2023-02-15T01:47:54;96127.44;;;1.24;100.00
10075;BME280;5076;42.680;23.288;2023-02-15T01:50:28;96132.66;;;1.24;100.00
10075;BME280;5076;42.680;23.288;2023-02-15T01:53:00;96114.47;;;1.16;100.00
10075;BME280;5076;42.680;23.288;2023-02-15T01:55:32;96115.28;;;1.17;100.00
10075;BME280;5076;42.680;23.288;2023-02-15T01:58:00;96106.97;;;1.13;100.00
10075;BME280;5076;42.680;23.288;2023-02-15T02:00:28;96111.53;;;1.11;100.00
10075;BME280;5076;42.680;23.288;2023-02-15T02:02:55;96107.50;;;1.00;100.00
10075;BME280;5076;42.680;23.288;2023-02-15T02:05:25;96113.84;;;1.06;100.00
10075;BME280;5076;42.680;23.288;2023-02-15T02:07:55;96121.16;;;1.11;100.00
10075;BME280;5076;42.680;23.288;2023-02-15T02:10:23;96108.78;;;1.13;100.00
10075;BME280;5076;42.680;23.288;2023-02-15T02:12:53;96114.00;;;1.04;100.00
10075;BME280;5076;42.680;23.288;2023-02-15T02:15:23;96107.03;;;0.97;100.00
10075;BME280;5076;42.680;23.288;2023-02-15T02:18:03;96122.63;;;1.05;100.00
10075;BME280;5076;42.680;23.288;2023-02-15T02:20:57;96107.03;;;0.97;100.00
10075;BME280;5076;42.680;23.288;2023-02-15T02:23:45;96125.53;;;1.10;100.00
10075;BME280;5076;42.680;23.288;2023-02-15T02:29:58;96119.19;;;1.13;100.00
10075;BME280;5076;42.680;23.288;2023-02-15T02:35:30;96126.47;;;1.33;100.00
10075;BME280;5076;42.680;23.288;2023-02-15T02:38:03;96123.53;;;1.36;100.00
10075;BME280;5076;42.680;23.288;2023-02-15T02:40:42;96130.66;;;1.42;100.00
10075;BME280;5076;42.680;23.288;2023-02-15T02:43:13;96128.38;;;1.39;100.00
10075;BME280;5076;42.680;23.288;2023-02-15T02:45:45;96134.41;;;1.40;100.00
10075;BME280;5076;42.680;23.288;2023-02-15T02:48:19;96125.94;;;1.46;100.00
10075;BME280;5076;42.680;23.288;2023-02-15T02:50:49;96126.09;;;1.45;100.00
10075;BME280;5076;42.680;23.288;2023-02-15T02:53:15;96129.66;;;1.52;100.00
10075;BME280;5076;42.680;23.288;2023-02-15T02:55:45;96133.69;;;1.62;100.00
10075;BME280;5076;42.680;23.288;2023-02-15T02:58:16;96127.00;;;1.60;100.00
10075;BME280;5076;42.680;23.288;2023-02-15T03:00:48;96126.03;;;1.61;100.00
10075;BME280;5076;42.680;23.288;2023-02-15T03:03:21;96136.59;;;1.67;100.00
10075;BME280;5076;42.680;23.288;2023-02-15T03:05:53;96130.38;;;1.68;100.00
10075;BME280;5076;42.680;23.288;2023-02-15T03:08:23;96137.22;;;1.69;100.00
10075;BME280;5076;42.680;23.288;2023-02-15T03:10:55;96141.09;;;1.82;100.00
10075;BME280;5076;42.680;23.288;2023-02-15T03:13:23;96142.56;;;1.76;100.00
10075;BME280;5076;42.680;23.288;2023-02-15T03:15:51;96147.78;;;1.76;100.00
10075;BME280;5076;42.680;23.288;2023-02-15T03:18:50;96145.94;;;1.85;100.00
10075;BME280;5076;42.680;23.288;2023-02-15T03:21:30;96137.66;;;1.81;100.00
10075;BME280;5076;42.680;23.288;2023-02-15T03:24:00;96137.84;;;1.80;100.00
10075;BME280;5076;42.680;23.288;2023-02-15T03:26:30;96141.91;;;1.82;100.00
10075;BME280;5076;42.680;23.288;2023-02-15T03:28:58;96134.41;;;1.79;100.00
10075;BME280;5076;42.680;23.288;2023-02-15T03:31:30;96131.16;;;1.77;100.00
10075;BME280;5076;42.680;23.288;2023-02-15T03:34:00;96132.47;;;1.81;100.00
10075;BME280;5076;42.680;23.288;2023-02-15T03:36:33;96141.91;;;1.82;100.00
10075;BME280;5076;42.680;23.288;2023-02-15T03:39:09;96145.31;;;1.83;100.00
10075;BME280;5076;42.680;23.288;2023-02-15T03:41:40;96123.19;;;1.79;100.00
10075;BME280;5076;42.680;23.288;2023-02-15T03:44:12;96140.88;;;1.91;100.00
10075;BME280;5076;42.680;23.288;2023-02-15T03:46:45;96149.53;;;1.84;100.00
10075;BME280;5076;42.680;23.288;2023-02-15T03:49:18;96149.19;;;1.87;100.00
10075;BME280;5076;42.680;23.288;2023-02-15T03:51:50;96143.53;;;1.83;100.00
10075;BME280;5076;42.680;23.288;2023-02-15T03:54:22;96135.72;;;1.83;100.00
10075;BME280;5076;42.680;23.288;2023-02-15T03:57:10;96145.09;;;1.92;100.00
10075;BME280;5076;42.680;23.288;2023-02-15T03:59:54;96136.94;;;1.95;100.00
10075;BME280;5076;42.680;23.288;2023-02-15T04:02:41;96138.19;;;1.99;100.00
10075;BME280;5076;42.680;23.288;2023-02-15T04:05:11;96140.19;;;1.97;100.00
10075;BME280;5076;42.680;23.288;2023-02-15T04:07:39;96137.28;;;1.92;100.00
10075;BME280;5076;42.680;23.288;2023-02-15T04:10:06;96138.56;;;1.96;100.00
10075;BME280;5076;42.680;23.288;2023-02-15T04:12:50;96150.47;;;1.91;100.00
10075;BME280;5076;42.680;23.288;2023-02-15T04:15:17;96155.69;;;1.91;100.00
10075;BME280;5076;42.680;23.288;2023-02-15T04:18:02;96162.69;;;1.90;100.00
10075;BME280;5076;42.680;23.288;2023-02-15T04:20:29;96158.13;;;1.92;100.00
10075;BME280;5076;42.680;23.288;2023-02-15T04:23:15;96166.94;;;1.91;100.00
10075;BME280;5076;42.680;23.288;2023-02-15T04:25:59;96168.56;;;1.92;100.00
10075;BME280;5076;42.680;23.288;2023-02-15T04:28:28;96177.03;;;1.94;100.00
10075;BME280;5076;42.680;23.288;2023-02-15T04:30:55;96186.66;;;1.94;100.00
10075;BME280;5076;42.680;23.288;2023-02-15T04:33:22;96183.53;;;1.98;100.00
10075;BME280;5076;42.680;23.288;2023-02-15T04:35:49;96186.25;;;2.05;100.00
10075;BME280;5076;42.680;23.288;2023-02-15T04:38:17;96187.03;;;2.14;100.00
10075;BME280;5076;42.680;23.288;2023-02-15T04:40:44;96194.38;;;2.10;100.00
10075;BME280;5076;42.680;23.288;2023-02-15T04:43:10;96181.84;;;2.05;100.00
10075;BME280;5076;42.680;23.288;2023-02-15T04:45:37;96181.84;;;2.05;100.00
10075;BME280;5076;42.680;23.288;2023-02-15T04:48:04;96178.44;;;2.05;100.00
10075;BME280;5076;42.680;23.288;2023-02-15T04:50:31;96174.50;;;2.09;100.00
10075;BME280;5076;42.680;23.288;2023-02-15T04:52:58;96181.34;;;2.10;100.00
10075;BME280;5076;42.680;23.288;2023-02-15T04:55:26;96191.06;;;2.16;100.00
10075;BME280;5076;42.680;23.288;2023-02-15T04:57:53;96189.13;;;2.18;100.00
10075;BME280;5076;42.680;23.288;2023-02-15T05:00:20;96190.25;;;2.16;100.00
10075;BME280;5076;42.680;23.288;2023-02-15T05:02:46;96202.72;;;2.05;100.00
10075;BME280;5076;42.680;23.288;2023-02-15T05:05:13;96201.72;;;2.06;100.00
10075;BME280;5076;42.680;23.288;2023-02-15T05:07:40;96189.00;;;2.11;100.00
10075;BME280;5076;42.680;23.288;2023-02-15T05:10:08;96196.19;;;2.09;100.00
10075;BME280;5076;42.680;23.288;2023-02-15T05:12:36;96203.19;;;2.09;100.00
10075;BME280;5076;42.680;23.288;2023-02-15T05:15:03;96216.72;;;2.13;100.00
10075;BME280;5076;42.680;23.288;2023-02-15T05:17:30;96196.78;;;2.20;100.00
10075;BME280;5076;42.680;23.288;2023-02-15T05:19:57;96207.91;;;2.14;100.00
10075;BME280;5076;42.680;23.288;2023-02-15T05:22:23;96219.97;;;2.06;100.00
10075;BME280;5076;42.680;23.288;2023-02-15T05:24:50;96208.06;;;2.12;100.00
10075;BME280;5076;42.680;23.288;2023-02-15T05:27:36;96212.91;;;2.15;100.00
10075;BME280;5076;42.680;23.288;2023-02-15T05:30:20;96217.53;;;2.13;100.00
10075;BME280;5076;42.680;23.288;2023-02-15T05:32:47;96219.59;;;2.18;100.00
10075;BME280;5076;42.680;23.288;2023-02-15T05:35:15;96234.88;;;2.29;100.00
10075;BME280;5076;42.680;23.288;2023-02-15T05:37:42;96228.06;;;2.20;100.00
10075;BME280;5076;42.680;23.288;2023-02-15T05:40:10;96232.47;;;2.19;100.00
10075;BME280;5076;42.680;23.288;2023-02-15T05:42:38;96237.81;;;2.26;100.00
10075;BME280;5076;42.680;23.288;2023-02-15T05:45:06;96226.25;;;2.28;100.00
10075;BME280;5076;42.680;23.288;2023-02-15T05:47:33;96234.69;;;2.30;100.00
10075;BME280;5076;42.680;23.288;2023-02-15T05:49:59;96227.06;;;2.29;100.00
10075;BME280;5076;42.680;23.288;2023-02-15T05:52:26;96237.22;;;2.46;100.00
10075;BME280;5076;42.680;23.288;2023-02-15T05:54:53;96238.41;;;2.44;100.00
10075;BME280;5076;42.680;23.288;2023-02-15T05:57:20;96234.16;;;2.43;100.00
10075;BME280;5076;42.680;23.288;2023-02-15T05:59:48;96230.59;;;2.36;100.00
10075;BME280;5076;42.680;23.288;2023-02-15T06:02:15;96229.38;;;2.46;100.00
10075;BME280;5076;42.680;23.288;2023-02-15T06:04:42;96241.91;;;2.51;100.00
10075;BME280;5076;42.680;23.288;2023-02-15T06:07:08;96235.88;;;2.51;100.00
10075;BME280;5076;42.680;23.288;2023-02-15T06:09:35;96238.97;;;2.54;100.00
10075;BME280;5076;42.680;23.288;2023-02-15T06:12:02;96217.56;;;2.36;100.00
10075;BME280;5076;42.680;23.288;2023-02-15T06:14:29;96232.63;;;2.48;100.00
10075;BME280;5076;42.680;23.288;2023-02-15T06:16:57;96226.31;;;2.43;100.00
10075;BME280;5076;42.680;23.288;2023-02-15T06:19:24;96240.34;;;2.42;100.00
10075;BME280;5076;42.680;23.288;2023-02-15T06:21:51;96243.06;;;2.48;100.00
10075;BME280;5076;42.680;23.288;2023-02-15T06:24:18;96241.44;;;2.47;100.00
10075;BME280;5076;42.680;23.288;2023-02-15T06:26:45;96246.91;;;2.30;100.00
10075;BME280;5076;42.680;23.288;2023-02-15T06:29:11;96244.06;;;2.47;100.00
10075;BME280;5076;42.680;23.288;2023-02-15T06:31:38;96242.25;;;2.48;100.00
10075;BME280;5076;42.680;23.288;2023-02-15T06:34:06;96228.13;;;2.42;100.00
10075;BME280;5076;42.680;23.288;2023-02-15T06:36:33;96242.06;;;2.58;100.00
10075;BME280;5076;42.680;23.288;2023-02-15T06:39:00;96237.66;;;2.58;100.00
10075;BME280;5076;42.680;23.288;2023-02-15T06:41:28;96237.59;;;2.66;100.00
10075;BME280;5076;42.680;23.288;2023-02-15T06:43:55;96219.75;;;2.47;100.00
10075;BME280;5076;42.680;23.288;2023-02-15T06:46:22;96248.25;;;2.57;100.00
10075;BME280;5076;42.680;23.288;2023-02-15T06:48:48;96230.06;;;2.71;100.00
10075;BME280;5076;42.680;23.288;2023-02-15T06:51:17;96237.06;;;2.71;100.00
10075;BME280;5076;42.680;23.288;2023-02-15T06:53:44;96237.66;;;2.81;100.00
10075;BME280;5076;42.680;23.288;2023-02-15T06:56:14;96245.31;;;2.82;100.00
10075;BME280;5076;42.680;23.288;2023-02-15T06:58:41;96243.59;;;2.75;100.00
10075;BME280;5076;42.680;23.288;2023-02-15T07:01:11;96240.91;;;2.83;100.00
10075;BME280;5076;42.680;23.288;2023-02-15T07:03:38;96239.78;;;3.00;100.00
10075;BME280;5076;42.680;23.288;2023-02-15T07:06:05;96238.91;;;3.08;100.00
10075;BME280;5076;42.680;23.288;2023-02-15T07:08:35;96251.88;;;3.01;100.00
10075;BME280;5076;42.680;23.288;2023-02-15T07:11:02;96247.38;;;3.10;100.00
10075;BME280;5076;42.680;23.288;2023-02-15T07:13:43;96238.25;;;3.06;100.00
10075;BME280;5076;42.680;23.288;2023-02-15T07:16:09;96238.91;;;3.08;100.00
10075;BME280;5076;42.680;23.288;2023-02-15T07:18:36;96228.50;;;3.23;100.00
10075;BME280;5076;42.680;23.288;2023-02-15T07:21:03;96235.75;;;3.35;100.00
10075;BME280;5076;42.680;23.288;2023-02-15T07:23:34;96233.38;;;3.26;100.00
10075;BME280;5076;42.680;23.288;2023-02-15T07:26:02;96248.88;;;3.27;100.00
10075;BME280;5076;42.680;23.288;2023-02-15T07:28:29;96247.44;;;3.39;100.00
10075;BME280;5076;42.680;23.288;2023-02-15T07:30:55;96247.06;;;3.65;100.00
10075;BME280;5076;42.680;23.288;2023-02-15T07:33:23;96251.31;;;3.66;100.00
10075;BME280;5076;42.680;23.288;2023-02-15T07:35:53;96238.19;;;3.51;100.00
10075;BME280;5076;42.680;23.288;2023-02-15T07:38:21;96239.47;;;3.56;100.00
10075;BME280;5076;42.680;23.288;2023-02-15T07:40:49;96235.88;;;3.71;100.00
10075;BME280;5076;42.680;23.288;2023-02-15T07:43:16;96222.53;;;3.81;100.00
10075;BME280;5076;42.680;23.288;2023-02-15T07:45:43;96235.06;;;4.00;100.00
10075;BME280;5076;42.680;23.288;2023-02-15T07:48:10;96233.88;;;4.03;100.00
10075;BME280;5076;42.680;23.288;2023-02-15T07:50:37;96223.34;;;3.81;100.00
10075;BME280;5076;42.680;23.288;2023-02-15T07:53:04;96222.63;;;3.58;100.00
10075;BME280;5076;42.680;23.288;2023-02-15T07:55:31;96234.34;;;3.77;100.00
10075;BME280;5076;42.680;23.288;2023-02-15T07:57:59;96230.75;;;3.93;100.00
10075;BME280;5076;42.680;23.288;2023-02-15T08:00:26;96215.75;;;3.72;100.00
10075;BME280;5076;42.680;23.288;2023-02-15T08:02:55;96226.56;;;3.83;100.00
10075;BME280;5076;42.680;23.288;2023-02-15T08:05:43;96228.13;;;3.78;100.00
10075;BME280;5076;42.680;23.288;2023-02-15T08:08:11;62941.16;;;-142.87;100.00
10075;BME280;5076;42.680;23.288;2023-02-15T08:10:57;62941.16;;;-142.87;100.00
10075;BME280;5076;42.680;23.288;2023-02-15T08:13:44;62941.16;;;-142.87;100.00
10075;BME280;5076;42.680;23.288;2023-02-15T08:16:20;62941.16;;;-142.87;100.00
10075;BME280;5076;42.680;23.288;2023-02-15T08:18:47;62941.16;;;-142.87;100.00
10075;BME280;5076;42.680;23.288;2023-02-15T08:21:14;62941.16;;;-142.87;100.00
10075;BME280;5076;42.680;23.288;2023-02-15T08:23:41;62941.16;;;-142.87;100.00
10075;BME280;5076;42.680;23.288;2023-02-15T08:26:07;62941.16;;;-142.87;100.00
10075;BME280;5076;42.680;23.288;2023-02-15T08:28:35;62941.16;;;-142.87;100.00
10075;BME280;5076;42.680;23.288;2023-02-15T08:31:07;62941.16;;;-142.87;100.00
10075;BME280;5076;42.680;23.288;2023-02-15T08:33:35;62941.16;;;-142.87;100.00
10075;BME280;5076;42.680;23.288;2023-02-15T08:36:03;62941.16;;;-142.87;100.00
10075;BME280;5076;42.680;23.288;2023-02-15T08:38:31;62941.16;;;-142.87;100.00
10075;BME280;5076;42.680;23.288;2023-02-15T08:40:58;62941.16;;;-142.87;100.00
10075;BME280;5076;42.680;23.288;2023-02-15T08:43:25;62941.16;;;-142.87;100.00
10075;BME280;5076;42.680;23.288;2023-02-15T08:45:52;62941.16;;;-142.87;100.00
10075;BME280;5076;42.680;23.288;2023-02-15T08:48:21;62941.16;;;-142.87;100.00
10075;BME280;5076;42.680;23.288;2023-02-15T08:50:47;62941.16;;;-142.87;100.00
10075;BME280;5076;42.680;23.288;2023-02-15T08:53:14;62941.16;;;-142.87;100.00
10075;BME280;5076;42.680;23.288;2023-02-15T08:55:41;62941.16;;;-142.87;100.00
10075;BME280;5076;42.680;23.288;2023-02-15T08:58:08;62941.16;;;-142.87;100.00
10075;BME280;5076;42.680;23.288;2023-02-15T09:00:35;62941.16;;;-142.87;100.00
10075;BME280;5076;42.680;23.288;2023-02-15T09:03:02;62941.16;;;-142.87;100.00
10075;BME280;5076;42.680;23.288;2023-02-15T09:05:30;62941.16;;;-142.87;100.00
10075;BME280;5076;42.680;23.288;2023-02-15T09:07:57;62941.16;;;-142.87;100.00
10075;BME280;5076;42.680;23.288;2023-02-15T09:10:23;62941.16;;;-142.87;100.00
10075;BME280;5076;42.680;23.288;2023-02-15T09:12:50;62941.16;;;-142.87;100.00
10075;BME280;5076;42.680;23.288;2023-02-15T09:15:18;62941.16;;;-142.87;100.00
10075;BME280;5076;42.680;23.288;2023-02-15T09:17:45;62941.16;;;-142.87;100.00
10075;BME280;5076;42.680;23.288;2023-02-15T09:20:12;62941.16;;;-142.87;100.00
10075;BME280;5076;42.680;23.288;2023-02-15T09:22:40;62941.16;;;-142.87;100.00
10075;BME280;5076;42.680;23.288;2023-02-15T09:25:07;62941.16;;;-142.87;100.00
10075;BME280;5076;42.680;23.288;2023-02-15T09:27:34;62941.16;;;-142.87;100.00
10075;BME280;5076;42.680;23.288;2023-02-15T09:30:01;62941.16;;;-142.87;100.00
10075;BME280;5076;42.680;23.288;2023-02-15T09:32:28;62941.16;;;-142.87;100.00
10075;BME280;5076;42.680;23.288;2023-02-15T09:34:55;62941.16;;;-142.87;100.00
10075;BME280;5076;42.680;23.288;2023-02-15T09:37:22;62941.16;;;-142.87;100.00
10075;BME280;5076;42.680;23.288;2023-02-15T09:39:50;62941.16;;;-142.87;100.00
10075;BME280;5076;42.680;23.288;2023-02-15T09:42:32;62941.16;;;-142.87;100.00
10075;BME280;5076;42.680;23.288;2023-02-15T09:45:13;62941.16;;;-142.87;100.00
10075;BME280;5076;42.680;23.288;2023-02-15T09:50:55;62941.16;;;-142.87;100.00
10075;BME280;5076;42.680;23.288;2023-02-15T09:53:35;62941.16;;;-142.87;100.00
10075;BME280;5076;42.680;23.288;2023-02-15T09:56:15;62941.16;;;-142.87;100.00
10075;BME280;5076;42.680;23.288;2023-02-15T09:58:50;62941.16;;;-142.87;100.00
10075;BME280;5076;42.680;23.288;2023-02-15T10:01:27;62941.16;;;-142.87;100.00
10075;BME280;5076;42.680;23.288;2023-02-15T10:04:14;62941.16;;;-142.87;100.00
10075;BME280;5076;42.680;23.288;2023-02-15T10:06:54;62941.16;;;-142.87;100.00
10075;BME280;5076;42.680;23.288;2023-02-15T10:09:36;62941.16;;;-142.87;100.00
10075;BME280;5076;42.680;23.288;2023-02-15T10:12:23;62941.16;;;-142.87;100.00
10075;BME280;5076;42.680;23.288;2023-02-15T10:15:08;62941.16;;;-142.87;100.00
10075;BME280;5076;42.680;23.288;2023-02-15T10:17:49;62941.16;;;-142.87;100.00
10075;BME280;5076;42.680;23.288;2023-02-15T10:20:30;62941.16;;;-142.87;100.00
10075;BME280;5076;42.680;23.288;2023-02-15T10:23:14;62941.16;;;-142.87;100.00
10075;BME280;5076;42.680;23.288;2023-02-15T10:25:47;62941.16;;;-142.87;100.00
10075;BME280;5076;42.680;23.288;2023-02-15T10:28:22;62941.16;;;-142.87;100.00
10075;BME280;5076;42.680;23.288;2023-02-15T10:30:51;62941.16;;;-142.87;100.00
10075;BME280;5076;42.680;23.288;2023-02-15T10:33:38;62941.16;;;-142.87;100.00
10075;BME280;5076;42.680;23.288;2023-02-15T10:36:14;62941.16;;;-142.87;100.00
10075;BME280;5076;42.680;23.288;2023-02-15T10:38:51;62941.16;;;-142.87;100.00
10075;BME280;5076;42.680;23.288;2023-02-15T10:41:29;62941.16;;;-142.87;100.00
10075;BME280;5076;42.680;23.288;2023-02-15T10:44:16;62941.16;;;-142.87;100.00
10075;BME280;5076;42.680;23.288;2023-02-15T10:47:11;62941.16;;;-142.87;100.00
10075;BME280;5076;42.680;23.288;2023-02-15T10:49:53;62941.16;;;-142.87;100.00
10075;BME280;5076;42.680;23.288;2023-02-15T10:52:32;62941.16;;;-142.87;100.00
10075;BME280;5076;42.680;23.288;2023-02-15T10:55:07;62941.16;;;-142.87;100.00
10075;BME280;5076;42.680;23.288;2023-02-15T10:57:46;62941.16;;;-142.87;100.00
10075;BME280;5076;42.680;23.288;2023-02-15T11:00:22;62941.16;;;-142.87;100.00
10075;BME280;5076;42.680;23.288;2023-02-15T11:03:05;62941.16;;;-142.87;100.00
10075;BME280;5076;42.680;23.288;2023-02-15T11:05:43;62941.16;;;-142.87;100.00
10075;BME280;5076;42.680;23.288;2023-02-15T11:08:15;62941.16;;;-142.87;100.00
10075;BME280;5076;42.680;23.288;2023-02-15T11:10:45;62941.16;;;-142.87;100.00
10075;BME280;5076;42.680;23.288;2023-02-15T11:13:16;62941.16;;;-142.87;100.00
10075;BME280;5076;42.680;23.288;2023-02-15T11:15:48;62941.16;;;-142.87;100.00
10075;BME280;5076;42.680;23.288;2023-02-15T11:18:23;62941.16;;;-142.87;100.00
10075;BME280;5076;42.680;23.288;2023-02-15T11:20:54;62941.16;;;-142.87;100.00
10075;BME280;5076;42.680;23.288;2023-02-15T11:23:24;62941.16;;;-142.87;100.00
10075;BME280;5076;42.680;23.288;2023-02-15T11:25:56;62941.16;;;-142.87;100.00
10075;BME280;5076;42.680;23.288;2023-02-15T11:28:28;62941.16;;;-142.87;100.00
10075;BME280;5076;42.680;23.288;2023-02-15T11:31:02;62941.16;;;-142.87;100.00
10075;BME280;5076;42.680;23.288;2023-02-15T11:33:35;62941.16;;;-142.87;100.00
10075;BME280;5076;42.680;23.288;2023-02-15T11:36:08;62941.16;;;-142.87;100.00
10075;BME280;5076;42.680;23.288;2023-02-15T11:38:36;62941.16;;;-142.87;100.00
10075;BME280;5076;42.680;23.288;2023-02-15T11:41:08;62941.16;;;-142.87;100.00
10075;BME280;5076;42.680;23.288;2023-02-15T11:43:39;62941.16;;;-142.87;100.00
10075;BME280;5076;42.680;23.288;2023-02-15T11:46:12;62941.16;;;-142.87;100.00
10075;BME280;5076;42.680;23.288;2023-02-15T11:48:40;62941.16;;;-142.87;100.00
10075;BME280;5076;42.680;23.288;2023-02-15T11:51:12;62941.16;;;-142.87;100.00
10075;BME280;5076;42.680;23.288;2023-02-15T11:53:42;62941.16;;;-142.87;100.00
10075;BME280;5076;42.680;23.288;2023-02-15T11:56:17;62941.16;;;-142.87;100.00
10075;BME280;5076;42.680;23.288;2023-02-15T11:58:47;62941.16;;;-142.87;100.00
10075;BME280;5076;42.680;23.288;2023-02-15T12:01:21;62941.16;;;-142.87;100.00
10075;BME280;5076;42.680;23.288;2023-02-15T12:03:50;62941.16;;;-142.87;100.00
10075;BME280;5076;42.680;23.288;2023-02-15T12:06:24;62941.16;;;-142.87;100.00
10075;BME280;5076;42.680;23.288;2023-02-15T12:08:57;62941.16;;;-142.87;100.00
10075;BME280;5076;42.680;23.288;2023-02-15T12:11:31;62941.16;;;-142.87;100.00
10075;BME280;5076;42.680;23.288;2023-02-15T12:14:01;62941.16;;;-142.87;100.00
10075;BME280;5076;42.680;23.288;2023-02-15T12:16:33;62941.16;;;-142.87;100.00
10075;BME280;5076;42.680;23.288;2023-02-15T12:19:02;62941.16;;;-142.87;100.00
10075;BME280;5076;42.680;23.288;2023-02-15T12:21:31;62941.16;;;-142.87;100.00
10075;BME280;5076;42.680;23.288;2023-02-15T12:24:09;62941.16;;;-142.87;100.00
10075;BME280;5076;42.680;23.288;2023-02-15T12:26:43;62941.16;;;-142.87;100.00
10075;BME280;5076;42.680;23.288;2023-02-15T12:29:15;62941.16;;;-142.87;100.00
10075;BME280;5076;42.680;23.288;2023-02-15T12:31:49;62941.16;;;-142.87;100.00
10075;BME280;5076;42.680;23.288;2023-02-15T12:34:21;62941.16;;;-142.87;100.00
10075;BME280;5076;42.680;23.288;2023-02-15T12:36:51;62941.16;;;-142.87;100.00
10075;BME280;5076;42.680;23.288;2023-02-15T12:39:24;62941.16;;;-142.87;100.00
10075;BME280;5076;42.680;23.288;2023-02-15T12:42:14;62941.16;;;-142.87;100.00
10075;BME280;5076;42.680;23.288;2023-02-15T12:44:54;62941.16;;;-142.87;100.00
10075;BME280;5076;42.680;23.288;2023-02-15T12:47:23;62941.16;;;-142.87;100.00
10075;BME280;5076;42.680;23.288;2023-02-15T12:50:08;62941.16;;;-142.87;100.00
10075;BME280;5076;42.680;23.288;2023-02-15T12:52:43;62941.16;;;-142.87;100.00
10075;BME280;5076;42.680;23.288;2023-02-15T12:55:23;62941.16;;;-142.87;100.00
10075;BME280;5076;42.680;23.288;2023-02-15T12:58:06;62941.16;;;-142.87;100.00
10075;BME280;5076;42.680;23.288;2023-02-15T13:00:33;62941.16;;;-142.87;100.00
10075;BME280;5076;42.680;23.288;2023-02-15T13:03:02;62941.16;;;-142.87;100.00
10075;BME280;5076;42.680;23.288;2023-02-15T13:05:32;62941.16;;;-142.87;100.00
10075;BME280;5076;42.680;23.288;2023-02-15T13:08:02;62941.16;;;-142.87;100.00
10075;BME280;5076;42.680;23.288;2023-02-15T13:10:32;62941.16;;;-142.87;100.00
10075;BME280;5076;42.680;23.288;2023-02-15T13:13:00;62941.16;;;-142.87;100.00
10075;BME280;5076;42.680;23.288;2023-02-15T13:15:34;62941.16;;;-142.87;100.00
10075;BME280;5076;42.680;23.288;2023-02-15T13:18:05;62941.16;;;-142.87;100.00